sensor_id;sensor_type;location;lat;lon;timestamp;P1;durP1;ratioP1;P2;durP2;ratioP2
42338;SDS011;27993;45.392;10.918;2023-02-20T00:00:00;192.83;;;73.03;;
42338;SDS011;27993;45.392;10.918;2023-02-20T00:02:30;189.90;;;72.47;;
42338;SDS011;27993;45.392;10.918;2023-02-20T00:05:01;169.83;;;71.90;;
42338;SDS011;27993;45.392;10.918;2023-02-20T00:07:31;175.93;;;76.03;;
42338;SDS011;27993;45.392;10.918;2023-02-20T00:10:02;168.00;;;71.93;;
42338;SDS011;27993;45.392;10.918;2023-02-20T00:12:33;197.53;;;74.93;;
42338;SDS011;27993;45.392;10.918;2023-02-20T00:15:04;173.33;;;72.73;;
42338;SDS011;27993;45.392;10.918;2023-02-20T00:17:35;195.68;;;74.95;;
42338;SDS011;27993;45.392;10.918;2023-02-20T00:20:06;178.33;;;71.23;;
42338;SDS011;27993;45.392;10.918;2023-02-20T00:22:37;175.90;;;72.43;;
42338;SDS011;27993;45.392;10.918;2023-02-20T00:25:07;173.10;;;72.57;;
42338;SDS011;27993;45.392;10.918;2023-02-20T00:27:38;184.43;;;73.87;;
42338;SDS011;27993;45.392;10.918;2023-02-20T00:30:12;187.13;;;76.13;;
42338;SDS011;27993;45.392;10.918;2023-02-20T00:32:52;180.57;;;72.87;;
42338;SDS011;27993;45.392;10.918;2023-02-20T00:35:25;172.55;;;69.65;;
42338;SDS011;27993;45.392;10.918;2023-02-20T00:37:55;172.00;;;75.22;;
42338;SDS011;27993;45.392;10.918;2023-02-20T00:40:26;179.67;;;70.73;;
42338;SDS011;27993;45.392;10.918;2023-02-20T00:42:57;180.67;;;75.03;;
42338;SDS011;27993;45.392;10.918;2023-02-20T00:45:27;163.03;;;71.17;;
42338;SDS011;27993;45.392;10.918;2023-02-20T00:47:58;175.83;;;74.17;;
42338;SDS011;27993;45.392;10.918;2023-02-20T00:50:29;177.10;;;72.03;;
42338;SDS011;27993;45.392;10.918;2023-02-20T00:52:59;172.53;;;71.87;;
42338;SDS011;27993;45.392;10.918;2023-02-20T00:55:30;181.37;;;76.13;;
42338;SDS011;27993;45.392;10.918;2023-02-20T00:58:00;179.43;;;74.10;;
42338;SDS011;27993;45.392;10.918;2023-02-20T01:00:31;169.23;;;74.83;;
42338;SDS011;27993;45.392;10.918;2023-02-20T01:03:02;178.20;;;72.77;;
42338;SDS011;27993;45.392;10.918;2023-02-20T01:05:32;178.40;;;73.97;;
42338;SDS011;27993;45.392;10.918;2023-02-20T01:08:03;175.30;;;72.27;;
42338;SDS011;27993;45.392;10.918;2023-02-20T01:10:34;188.13;;;72.20;;
42338;SDS011;27993;45.392;10.918;2023-02-20T01:13:04;197.83;;;77.47;;
42338;SDS011;27993;45.392;10.918;2023-02-20T01:15:35;178.27;;;73.00;;
42338;SDS011;27993;45.392;10.918;2023-02-20T01:18:06;183.33;;;77.53;;
42338;SDS011;27993;45.392;10.918;2023-02-20T01:20:36;175.57;;;77.23;;
42338;SDS011;27993;45.392;10.918;2023-02-20T01:23:07;176.12;;;75.65;;
42338;SDS011;27993;45.392;10.918;2023-02-20T01:25:38;179.97;;;75.23;;
42338;SDS011;27993;45.392;10.918;2023-02-20T01:28:09;183.97;;;75.93;;
42338;SDS011;27993;45.392;10.918;2023-02-20T01:30:39;159.37;;;76.40;;
42338;SDS011;27993;45.392;10.918;2023-02-20T01:33:10;170.00;;;74.37;;
42338;SDS011;27993;45.392;10.918;2023-02-20T01:35:41;177.77;;;76.93;;
42338;SDS011;27993;45.392;10.918;2023-02-20T01:38:11;168.40;;;73.43;;
42338;SDS011;27993;45.392;10.918;2023-02-20T01:40:45;162.17;;;74.83;;
42338;SDS011;27993;45.392;10.918;2023-02-20T01:43:17;180.37;;;76.55;;
42338;SDS011;27993;45.392;10.918;2023-02-20T01:45:48;184.27;;;76.40;;
42338;SDS011;27993;45.392;10.918;2023-02-20T01:48:20;186.67;;;79.80;;
42338;SDS011;27993;45.392;10.918;2023-02-20T01:50:56;168.73;;;76.95;;
42338;SDS011;27993;45.392;10.918;2023-02-20T01:53:28;167.45;;;75.15;;
42338;SDS011;27993;45.392;10.918;2023-02-20T01:58:40;168.10;;;70.20;;
42338;SDS011;27993;45.392;10.918;2023-02-20T02:01:13;165.65;;;76.80;;
42338;SDS011;27993;45.392;10.918;2023-02-20T02:03:45;173.30;;;75.40;;
42338;SDS011;27993;45.392;10.918;2023-02-20T02:06:18;166.85;;;76.93;;
42338;SDS011;27993;45.392;10.918;2023-02-20T02:08:49;169.00;;;75.17;;
42338;SDS011;27993;45.392;10.918;2023-02-20T02:11:21;168.68;;;76.12;;
42338;SDS011;27993;45.392;10.918;2023-02-20T02:13:54;167.82;;;74.87;;
42338;SDS011;27993;45.392;10.918;2023-02-20T02:22:06;178.90;;;76.05;;
42338;SDS011;27993;45.392;10.918;2023-02-20T02:37:18;161.32;;;71.62;;
42338;SDS011;27993;45.392;10.918;2023-02-20T02:45:50;190.43;;;76.43;;
42338;SDS011;27993;45.392;10.918;2023-02-20T02:48:34;166.15;;;75.40;;
42338;SDS011;27993;45.392;10.918;2023-02-20T02:51:10;169.62;;;73.97;;
42338;SDS011;27993;45.392;10.918;2023-02-20T02:56:39;163.82;;;74.37;;
42338;SDS011;27993;45.392;10.918;2023-02-20T02:59:17;173.38;;;79.57;;
42338;SDS011;27993;45.392;10.918;2023-02-20T03:01:59;173.27;;;73.00;;
42338;SDS011;27993;45.392;10.918;2023-02-20T03:04:34;188.00;;;78.47;;
42338;SDS011;27993;45.392;10.918;2023-02-20T03:07:07;164.57;;;75.85;;
42338;SDS011;27993;45.392;10.918;2023-02-20T03:09:44;161.30;;;74.35;;
42338;SDS011;27993;45.392;10.918;2023-02-20T03:12:20;179.77;;;78.87;;
42338;SDS011;27993;45.392;10.918;2023-02-20T03:20:17;166.37;;;71.18;;
42338;SDS011;27993;45.392;10.918;2023-02-20T03:22:54;158.68;;;72.20;;
42338;SDS011;27993;45.392;10.918;2023-02-20T03:28:08;159.77;;;72.53;;
42338;SDS011;27993;45.392;10.918;2023-02-20T03:33:30;163.55;;;73.47;;
42338;SDS011;27993;45.392;10.918;2023-02-20T03:36:27;159.70;;;69.90;;
42338;SDS011;27993;45.392;10.918;2023-02-20T03:39:26;165.20;;;72.82;;
42338;SDS011;27993;45.392;10.918;2023-02-20T03:42:23;165.57;;;72.55;;
42338;SDS011;27993;45.392;10.918;2023-02-20T03:45:13;164.15;;;72.47;;
42338;SDS011;27993;45.392;10.918;2023-02-20T03:47:46;151.05;;;72.55;;
42338;SDS011;27993;45.392;10.918;2023-02-20T03:50:21;146.02;;;68.85;;
42338;SDS011;27993;45.392;10.918;2023-02-20T03:52:52;165.00;;;74.03;;
42338;SDS011;27993;45.392;10.918;2023-02-20T03:55:24;150.73;;;73.07;;
42338;SDS011;27993;45.392;10.918;2023-02-20T03:57:56;169.05;;;75.05;;
42338;SDS011;27993;45.392;10.918;2023-02-20T04:00:31;158.55;;;71.57;;
42338;SDS011;27993;45.392;10.918;2023-02-20T04:03:07;178.10;;;73.40;;
42338;SDS011;27993;45.392;10.918;2023-02-20T04:05:45;153.87;;;72.45;;
42338;SDS011;27993;45.392;10.918;2023-02-20T04:08:28;151.85;;;71.40;;
42338;SDS011;27993;45.392;10.918;2023-02-20T04:11:27;164.32;;;73.87;;
42338;SDS011;27993;45.392;10.918;2023-02-20T04:14:03;149.85;;;67.90;;
42338;SDS011;27993;45.392;10.918;2023-02-20T04:16:37;163.43;;;72.28;;
42338;SDS011;27993;45.392;10.918;2023-02-20T04:19:12;151.73;;;71.90;;
42338;SDS011;27993;45.392;10.918;2023-02-20T04:21:45;168.97;;;70.53;;
42338;SDS011;27993;45.392;10.918;2023-02-20T04:24:25;143.52;;;69.62;;
42338;SDS011;27993;45.392;10.918;2023-02-20T04:27:05;143.32;;;71.32;;
42338;SDS011;27993;45.392;10.918;2023-02-20T04:32:07;152.25;;;66.25;;
42338;SDS011;27993;45.392;10.918;2023-02-20T04:34:38;158.83;;;70.60;;
42338;SDS011;27993;45.392;10.918;2023-02-20T04:37:10;148.93;;;69.33;;
42338;SDS011;27993;45.392;10.918;2023-02-20T04:39:42;161.48;;;72.40;;
42338;SDS011;27993;45.392;10.918;2023-02-20T04:42:13;152.52;;;71.37;;
42338;SDS011;27993;45.392;10.918;2023-02-20T04:44:44;156.40;;;71.87;;
42338;SDS011;27993;45.392;10.918;2023-02-20T04:47:15;157.83;;;69.33;;
42338;SDS011;27993;45.392;10.918;2023-02-20T04:49:47;171.48;;;74.00;;
42338;SDS011;27993;45.392;10.918;2023-02-20T04:52:18;155.43;;;70.10;;
42338;SDS011;27993;45.392;10.918;2023-02-20T04:54:48;149.63;;;69.83;;
42338;SDS011;27993;45.392;10.918;2023-02-20T04:57:19;170.40;;;72.43;;
42338;SDS011;27993;45.392;10.918;2023-02-20T04:59:51;146.75;;;68.55;;
42338;SDS011;27993;45.392;10.918;2023-02-20T05:02:22;167.70;;;72.97;;
42338;SDS011;27993;45.392;10.918;2023-02-20T05:04:52;168.57;;;70.20;;
42338;SDS011;27993;45.392;10.918;2023-02-20T05:07:23;159.77;;;74.60;;
42338;SDS011;27993;45.392;10.918;2023-02-20T05:09:53;163.70;;;72.73;;
42338;SDS011;27993;45.392;10.918;2023-02-20T05:12:24;175.77;;;72.57;;
42338;SDS011;27993;45.392;10.918;2023-02-20T05:14:55;158.20;;;68.27;;
42338;SDS011;27993;45.392;10.918;2023-02-20T05:17:25;142.23;;;70.03;;
42338;SDS011;27993;45.392;10.918;2023-02-20T05:19:56;154.10;;;71.93;;
42338;SDS011;27993;45.392;10.918;2023-02-20T05:22:26;152.73;;;70.00;;
42338;SDS011;27993;45.392;10.918;2023-02-20T05:24:57;170.87;;;75.00;;
42338;SDS011;27993;45.392;10.918;2023-02-20T05:27:28;161.47;;;72.77;;
42338;SDS011;27993;45.392;10.918;2023-02-20T05:29:59;149.23;;;72.03;;
42338;SDS011;27993;45.392;10.918;2023-02-20T05:32:30;175.62;;;71.87;;
42338;SDS011;27993;45.392;10.918;2023-02-20T05:35:00;165.33;;;73.70;;
42338;SDS011;27993;45.392;10.918;2023-02-20T05:37:31;172.80;;;73.23;;
42338;SDS011;27993;45.392;10.918;2023-02-20T05:40:02;146.47;;;69.83;;
42338;SDS011;27993;45.392;10.918;2023-02-20T05:42:34;148.43;;;72.72;;
42338;SDS011;27993;45.392;10.918;2023-02-20T05:45:05;177.50;;;72.83;;
42338;SDS011;27993;45.392;10.918;2023-02-20T05:47:38;158.77;;;69.82;;
42338;SDS011;27993;45.392;10.918;2023-02-20T05:50:08;154.13;;;69.17;;
42338;SDS011;27993;45.392;10.918;2023-02-20T05:52:39;158.10;;;71.47;;
42338;SDS011;27993;45.392;10.918;2023-02-20T05:55:10;152.67;;;70.17;;
42338;SDS011;27993;45.392;10.918;2023-02-20T05:57:40;157.20;;;69.80;;
42338;SDS011;27993;45.392;10.918;2023-02-20T06:00:11;148.73;;;73.10;;
42338;SDS011;27993;45.392;10.918;2023-02-20T06:02:42;154.75;;;70.00;;
42338;SDS011;27993;45.392;10.918;2023-02-20T06:05:13;142.03;;;69.00;;
42338;SDS011;27993;45.392;10.918;2023-02-20T06:07:44;154.13;;;70.27;;
42338;SDS011;27993;45.392;10.918;2023-02-20T06:10:17;160.40;;;72.35;;
42338;SDS011;27993;45.392;10.918;2023-02-20T06:12:48;140.93;;;66.95;;
42338;SDS011;27993;45.392;10.918;2023-02-20T06:15:19;142.60;;;67.47;;
42338;SDS011;27993;45.392;10.918;2023-02-20T06:17:50;144.80;;;69.37;;
42338;SDS011;27993;45.392;10.918;2023-02-20T06:20:20;143.70;;;69.50;;
42338;SDS011;27993;45.392;10.918;2023-02-20T06:22:51;164.80;;;68.33;;
42338;SDS011;27993;45.392;10.918;2023-02-20T06:25:22;134.73;;;62.60;;
42338;SDS011;27993;45.392;10.918;2023-02-20T06:27:52;143.93;;;66.33;;
42338;SDS011;27993;45.392;10.918;2023-02-20T06:30:23;159.43;;;69.97;;
42338;SDS011;27993;45.392;10.918;2023-02-20T06:32:53;149.43;;;71.10;;
42338;SDS011;27993;45.392;10.918;2023-02-20T06:35:24;153.63;;;69.37;;
42338;SDS011;27993;45.392;10.918;2023-02-20T06:37:55;149.83;;;68.47;;
42338;SDS011;27993;45.392;10.918;2023-02-20T06:40:25;159.87;;;68.50;;
42338;SDS011;27993;45.392;10.918;2023-02-20T06:42:56;147.37;;;71.30;;
42338;SDS011;27993;45.392;10.918;2023-02-20T06:45:26;153.20;;;69.83;;
42338;SDS011;27993;45.392;10.918;2023-02-20T06:47:57;137.10;;;66.10;;
42338;SDS011;27993;45.392;10.918;2023-02-20T06:50:28;163.20;;;69.83;;
42338;SDS011;27993;45.392;10.918;2023-02-20T06:52:58;144.13;;;67.63;;
42338;SDS011;27993;45.392;10.918;2023-02-20T06:55:29;140.23;;;68.60;;
42338;SDS011;27993;45.392;10.918;2023-02-20T06:58:00;145.23;;;66.50;;
42338;SDS011;27993;45.392;10.918;2023-02-20T07:00:31;148.00;;;71.83;;
42338;SDS011;27993;45.392;10.918;2023-02-20T07:03:02;143.10;;;67.53;;
42338;SDS011;27993;45.392;10.918;2023-02-20T07:05:32;137.67;;;68.30;;
42338;SDS011;27993;45.392;10.918;2023-02-20T07:08:03;154.30;;;70.00;;
42338;SDS011;27993;45.392;10.918;2023-02-20T07:10:34;144.60;;;69.57;;
42338;SDS011;27993;45.392;10.918;2023-02-20T07:13:04;142.43;;;68.37;;
42338;SDS011;27993;45.392;10.918;2023-02-20T07:15:35;150.73;;;68.37;;
42338;SDS011;27993;45.392;10.918;2023-02-20T07:18:06;146.77;;;69.27;;
42338;SDS011;27993;45.392;10.918;2023-02-20T07:20:36;154.87;;;72.00;;
42338;SDS011;27993;45.392;10.918;2023-02-20T07:23:07;140.73;;;69.00;;
42338;SDS011;27993;45.392;10.918;2023-02-20T07:25:38;146.87;;;67.37;;
42338;SDS011;27993;45.392;10.918;2023-02-20T07:28:08;140.93;;;66.27;;
42338;SDS011;27993;45.392;10.918;2023-02-20T07:30:39;131.13;;;65.37;;
42338;SDS011;27993;45.392;10.918;2023-02-20T07:33:10;144.90;;;65.93;;
42338;SDS011;27993;45.392;10.918;2023-02-20T07:35:41;150.47;;;64.40;;
42338;SDS011;27993;45.392;10.918;2023-02-20T07:38:12;147.97;;;65.13;;
42338;SDS011;27993;45.392;10.918;2023-02-20T07:40:42;116.53;;;60.47;;
42338;SDS011;27993;45.392;10.918;2023-02-20T07:43:13;135.87;;;60.83;;
42338;SDS011;27993;45.392;10.918;2023-02-20T07:45:44;138.57;;;60.67;;
42338;SDS011;27993;45.392;10.918;2023-02-20T07:48:14;123.17;;;62.17;;
42338;SDS011;27993;45.392;10.918;2023-02-20T07:50:45;127.03;;;62.03;;
42338;SDS011;27993;45.392;10.918;2023-02-20T07:53:16;120.40;;;60.40;;
42338;SDS011;27993;45.392;10.918;2023-02-20T07:55:48;107.70;;;57.22;;
42338;SDS011;27993;45.392;10.918;2023-02-20T07:58:19;118.73;;;56.60;;
42338;SDS011;27993;45.392;10.918;2023-02-20T08:00:50;118.97;;;56.80;;
42338;SDS011;27993;45.392;10.918;2023-02-20T08:03:22;127.45;;;56.85;;
42338;SDS011;27993;45.392;10.918;2023-02-20T08:05:53;118.07;;;55.70;;
42338;SDS011;27993;45.392;10.918;2023-02-20T08:08:24;104.80;;;54.60;;
42338;SDS011;27993;45.392;10.918;2023-02-20T08:10:54;110.50;;;55.80;;
42338;SDS011;27993;45.392;10.918;2023-02-20T08:13:25;109.40;;;52.80;;
42338;SDS011;27993;45.392;10.918;2023-02-20T08:15:56;104.78;;;54.10;;
42338;SDS011;27993;45.392;10.918;2023-02-20T08:18:27;115.23;;;57.87;;
42338;SDS011;27993;45.392;10.918;2023-02-20T08:20:58;133.43;;;56.87;;
42338;SDS011;27993;45.392;10.918;2023-02-20T08:23:28;119.97;;;57.20;;
42338;SDS011;27993;45.392;10.918;2023-02-20T08:25:59;134.97;;;59.03;;
42338;SDS011;27993;45.392;10.918;2023-02-20T08:28:31;126.55;;;60.45;;
42338;SDS011;27993;45.392;10.918;2023-02-20T08:31:02;145.67;;;69.47;;
42338;SDS011;27993;45.392;10.918;2023-02-20T08:33:34;137.37;;;68.28;;
42338;SDS011;27993;45.392;10.918;2023-02-20T08:36:04;143.40;;;67.63;;
42338;SDS011;27993;45.392;10.918;2023-02-20T08:38:36;146.70;;;66.82;;
42338;SDS011;27993;45.392;10.918;2023-02-20T08:41:08;141.48;;;67.45;;
42338;SDS011;27993;45.392;10.918;2023-02-20T08:43:42;140.18;;;63.55;;
42338;SDS011;27993;45.392;10.918;2023-02-20T08:46:13;130.32;;;62.67;;
42338;SDS011;27993;45.392;10.918;2023-02-20T08:48:44;130.07;;;62.65;;
42338;SDS011;27993;45.392;10.918;2023-02-20T08:51:17;140.30;;;67.77;;
42338;SDS011;27993;45.392;10.918;2023-02-20T08:53:49;135.30;;;70.18;;
42338;SDS011;27993;45.392;10.918;2023-02-20T08:56:20;136.43;;;67.33;;
42338;SDS011;27993;45.392;10.918;2023-02-20T08:58:51;149.27;;;65.28;;
42338;SDS011;27993;45.392;10.918;2023-02-20T09:01:22;135.95;;;65.85;;
42338;SDS011;27993;45.392;10.918;2023-02-20T09:03:53;155.20;;;67.18;;
42338;SDS011;27993;45.392;10.918;2023-02-20T09:06:25;145.40;;;69.75;;
42338;SDS011;27993;45.392;10.918;2023-02-20T09:08:57;146.15;;;68.85;;
42338;SDS011;27993;45.392;10.918;2023-02-20T09:11:28;142.87;;;70.37;;
42338;SDS011;27993;45.392;10.918;2023-02-20T09:13:58;156.10;;;69.60;;
42338;SDS011;27993;45.392;10.918;2023-02-20T09:16:29;147.17;;;69.57;;
42338;SDS011;27993;45.392;10.918;2023-02-20T09:19:00;153.17;;;74.83;;
42338;SDS011;27993;45.392;10.918;2023-02-20T09:21:30;153.07;;;69.33;;
42338;SDS011;27993;45.392;10.918;2023-02-20T09:24:01;138.57;;;67.57;;
42338;SDS011;27993;45.392;10.918;2023-02-20T09:26:34;147.90;;;73.18;;
42338;SDS011;27993;45.392;10.918;2023-02-20T09:29:04;146.00;;;74.30;;
42338;SDS011;27993;45.392;10.918;2023-02-20T09:31:35;143.90;;;72.97;;
42338;SDS011;27993;45.392;10.918;2023-02-20T09:34:05;143.97;;;70.77;;
42338;SDS011;27993;45.392;10.918;2023-02-20T09:36:36;138.30;;;64.70;;
42338;SDS011;27993;45.392;10.918;2023-02-20T09:39:07;118.93;;;63.77;;
42338;SDS011;27993;45.392;10.918;2023-02-20T09:41:44;136.67;;;64.33;;
42338;SDS011;27993;45.392;10.918;2023-02-20T09:47:29;120.68;;;62.10;;
42338;SDS011;27993;45.392;10.918;2023-02-20T09:50:29;132.05;;;66.75;;
42338;SDS011;27993;45.392;10.918;2023-02-20T09:55:59;114.18;;;62.17;;
42338;SDS011;27993;45.392;10.918;2023-02-20T09:58:36;103.20;;;62.97;;
42338;SDS011;27993;45.392;10.918;2023-02-20T10:01:16;99.07;;;61.60;;
42338;SDS011;27993;45.392;10.918;2023-02-20T10:03:57;97.15;;;59.30;;
42338;SDS011;27993;45.392;10.918;2023-02-20T10:06:32;95.78;;;60.83;;
42338;SDS011;27993;45.392;10.918;2023-02-20T10:09:05;70.20;;;48.47;;
42338;SDS011;27993;45.392;10.918;2023-02-20T10:11:57;70.68;;;44.83;;
42338;SDS011;27993;45.392;10.918;2023-02-20T10:17:32;60.38;;;40.03;;
42338;SDS011;27993;45.392;10.918;2023-02-20T10:22:47;45.30;;;34.92;;
42338;SDS011;27993;45.392;10.918;2023-02-20T10:25:31;48.10;;;35.58;;
42338;SDS011;27993;45.392;10.918;2023-02-20T10:28:14;61.63;;;36.33;;
42338;SDS011;27993;45.392;10.918;2023-02-20T10:36:07;68.53;;;44.17;;
42338;SDS011;27993;45.392;10.918;2023-02-20T10:41:53;59.88;;;41.25;;
42338;SDS011;27993;45.392;10.918;2023-02-20T10:44:34;60.65;;;40.08;;
42338;SDS011;27993;45.392;10.918;2023-02-20T10:47:26;61.42;;;43.92;;
42338;SDS011;27993;45.392;10.918;2023-02-20T10:50:14;65.15;;;43.67;;
42338;SDS011;27993;45.392;10.918;2023-02-20T10:52:48;60.33;;;44.28;;
42338;SDS011;27993;45.392;10.918;2023-02-20T10:55:35;69.00;;;45.30;;
42338;SDS011;27993;45.392;10.918;2023-02-20T11:01:10;71.53;;;43.40;;
42338;SDS011;27993;45.392;10.918;2023-02-20T11:03:58;58.00;;;43.72;;
42338;SDS011;27993;45.392;10.918;2023-02-20T11:06:35;62.03;;;42.00;;
42338;SDS011;27993;45.392;10.918;2023-02-20T11:11:43;64.43;;;45.92;;
42338;SDS011;27993;45.392;10.918;2023-02-20T11:14:19;74.22;;;45.05;;
42338;SDS011;27993;45.392;10.918;2023-02-20T11:16:58;68.97;;;45.65;;
42338;SDS011;27993;45.392;10.918;2023-02-20T11:19:43;66.87;;;46.50;;
42338;SDS011;27993;45.392;10.918;2023-02-20T11:22:16;63.20;;;45.15;;
42338;SDS011;27993;45.392;10.918;2023-02-20T11:24:47;70.30;;;46.95;;
42338;SDS011;27993;45.392;10.918;2023-02-20T11:30:10;75.60;;;47.78;;
42338;SDS011;27993;45.392;10.918;2023-02-20T11:33:25;73.78;;;46.95;;
42338;SDS011;27993;45.392;10.918;2023-02-20T11:35:54;75.32;;;45.75;;
42338;SDS011;27993;45.392;10.918;2023-02-20T11:38:31;72.35;;;46.97;;
42338;SDS011;27993;45.392;10.918;2023-02-20T11:41:05;78.05;;;48.30;;
42338;SDS011;27993;45.392;10.918;2023-02-20T11:43:42;69.10;;;45.70;;
42338;SDS011;27993;45.392;10.918;2023-02-20T11:46:21;70.05;;;46.88;;
42338;SDS011;27993;45.392;10.918;2023-02-20T11:54:13;67.57;;;43.85;;
42338;SDS011;27993;45.392;10.918;2023-02-20T11:57:02;69.10;;;44.55;;
42338;SDS011;27993;45.392;10.918;2023-02-20T12:00:08;67.93;;;43.47;;
42338;SDS011;27993;45.392;10.918;2023-02-20T12:02:47;67.12;;;40.72;;
42338;SDS011;27993;45.392;10.918;2023-02-20T12:05:43;66.65;;;41.42;;
42338;SDS011;27993;45.392;10.918;2023-02-20T12:11:26;67.97;;;39.40;;
42338;SDS011;27993;45.392;10.918;2023-02-20T12:13:58;66.32;;;36.90;;
42338;SDS011;27993;45.392;10.918;2023-02-20T12:19:20;62.13;;;38.88;;
42338;SDS011;27993;45.392;10.918;2023-02-20T12:29:57;64.22;;;37.15;;
42338;SDS011;27993;45.392;10.918;2023-02-20T12:43:43;66.18;;;36.38;;
42338;SDS011;27993;45.392;10.918;2023-02-20T12:46:23;63.13;;;37.87;;
42338;SDS011;27993;45.392;10.918;2023-02-20T12:52:21;63.22;;;36.45;;
42338;SDS011;27993;45.392;10.918;2023-02-20T12:55:07;54.78;;;32.50;;
42338;SDS011;27993;45.392;10.918;2023-02-20T13:03:22;53.25;;;33.80;;
42338;SDS011;27993;45.392;10.918;2023-02-20T13:06:04;55.88;;;34.28;;
42338;SDS011;27993;45.392;10.918;2023-02-20T13:08:36;60.67;;;37.88;;
42338;SDS011;27993;45.392;10.918;2023-02-20T13:11:17;58.53;;;35.53;;
42338;SDS011;27993;45.392;10.918;2023-02-20T13:13:55;65.43;;;38.67;;
42338;SDS011;27993;45.392;10.918;2023-02-20T13:16:43;70.07;;;42.60;;
42338;SDS011;27993;45.392;10.918;2023-02-20T13:22:09;69.75;;;41.85;;
42338;SDS011;27993;45.392;10.918;2023-02-20T13:24:40;75.60;;;42.47;;
42338;SDS011;27993;45.392;10.918;2023-02-20T13:27:25;74.57;;;44.90;;
42338;SDS011;27993;45.392;10.918;2023-02-20T13:30:17;75.72;;;43.97;;
42338;SDS011;27993;45.392;10.918;2023-02-20T13:32:50;82.82;;;44.08;;
42338;SDS011;27993;45.392;10.918;2023-02-20T13:35:57;84.20;;;47.58;;
42338;SDS011;27993;45.392;10.918;2023-02-20T13:38:27;78.62;;;46.25;;
42338;SDS011;27993;45.392;10.918;2023-02-20T13:41:03;86.00;;;45.10;;
42338;SDS011;27993;45.392;10.918;2023-02-20T13:43:38;81.50;;;45.83;;
42338;SDS011;27993;45.392;10.918;2023-02-20T13:46:10;97.90;;;48.50;;
42338;SDS011;27993;45.392;10.918;2023-02-20T13:48:47;79.97;;;45.03;;
42338;SDS011;27993;45.392;10.918;2023-02-20T13:54:11;91.53;;;47.72;;
42338;SDS011;27993;45.392;10.918;2023-02-20T13:56:54;76.68;;;45.50;;
42338;SDS011;27993;45.392;10.918;2023-02-20T13:59:28;92.53;;;49.15;;
42338;SDS011;27993;45.392;10.918;2023-02-20T14:02:00;93.57;;;50.83;;
42338;SDS011;27993;45.392;10.918;2023-02-20T14:04:52;87.90;;;47.95;;
42338;SDS011;27993;45.392;10.918;2023-02-20T14:07:31;94.47;;;50.72;;
42338;SDS011;27993;45.392;10.918;2023-02-20T14:10:12;96.72;;;51.22;;
42338;SDS011;27993;45.392;10.918;2023-02-20T14:15:55;92.40;;;50.15;;
42338;SDS011;27993;45.392;10.918;2023-02-20T14:18:28;86.00;;;47.42;;
42338;SDS011;27993;45.392;10.918;2023-02-20T14:21:19;81.60;;;49.22;;
42338;SDS011;27993;45.392;10.918;2023-02-20T14:23:52;86.22;;;51.15;;
42338;SDS011;27993;45.392;10.918;2023-02-20T14:26:32;81.50;;;47.35;;
42338;SDS011;27993;45.392;10.918;2023-02-20T14:29:03;88.60;;;46.80;;
42338;SDS011;27993;45.392;10.918;2023-02-20T14:31:54;84.95;;;47.38;;
42338;SDS011;27993;45.392;10.918;2023-02-20T14:37:24;90.50;;;48.08;;
42338;SDS011;27993;45.392;10.918;2023-02-20T14:40:55;89.62;;;48.33;;
42338;SDS011;27993;45.392;10.918;2023-02-20T14:43:20;87.40;;;48.42;;
42338;SDS011;27993;45.392;10.918;2023-02-20T14:46:03;86.53;;;47.42;;
42338;SDS011;27993;45.392;10.918;2023-02-20T14:48:36;89.87;;;47.45;;
42338;SDS011;27993;45.392;10.918;2023-02-20T14:51:20;85.32;;;49.03;;
42338;SDS011;27993;45.392;10.918;2023-02-20T14:53:57;83.93;;;45.05;;
42338;SDS011;27993;45.392;10.918;2023-02-20T14:56:30;74.57;;;43.92;;
42338;SDS011;27993;45.392;10.918;2023-02-20T15:02:01;74.78;;;41.88;;
42338;SDS011;27993;45.392;10.918;2023-02-20T15:04:53;75.55;;;40.83;;
42338;SDS011;27993;45.392;10.918;2023-02-20T15:07:29;74.32;;;39.42;;
42338;SDS011;27993;45.392;10.918;2023-02-20T15:10:01;83.00;;;43.63;;
42338;SDS011;27993;45.392;10.918;2023-02-20T15:12:35;80.68;;;42.13;;
42338;SDS011;27993;45.392;10.918;2023-02-20T15:15:09;77.90;;;42.35;;
42338;SDS011;27993;45.392;10.918;2023-02-20T15:17:43;66.32;;;40.42;;
42338;SDS011;27993;45.392;10.918;2023-02-20T15:20:33;68.80;;;40.50;;
42338;SDS011;27993;45.392;10.918;2023-02-20T15:23:49;64.53;;;40.47;;
42338;SDS011;27993;45.392;10.918;2023-02-20T15:26:32;75.15;;;40.67;;
42338;SDS011;27993;45.392;10.918;2023-02-20T15:29:22;79.15;;;42.75;;
42338;SDS011;27993;45.392;10.918;2023-02-20T15:31:55;71.32;;;38.55;;
42338;SDS011;27993;45.392;10.918;2023-02-20T15:34:30;87.15;;;41.80;;
42338;SDS011;27993;45.392;10.918;2023-02-20T15:37:39;76.10;;;38.95;;
42338;SDS011;27993;45.392;10.918;2023-02-20T15:43:04;75.62;;;39.25;;
42338;SDS011;27993;45.392;10.918;2023-02-20T15:45:43;66.47;;;38.78;;
42338;SDS011;27993;45.392;10.918;2023-02-20T15:48:13;61.70;;;37.50;;
42338;SDS011;27993;45.392;10.918;2023-02-20T15:50:45;64.15;;;36.47;;
42338;SDS011;27993;45.392;10.918;2023-02-20T15:55:54;75.68;;;36.65;;
42338;SDS011;27993;45.392;10.918;2023-02-20T15:58:30;71.35;;;38.83;;
42338;SDS011;27993;45.392;10.918;2023-02-20T16:01:05;73.55;;;37.85;;
42338;SDS011;27993;45.392;10.918;2023-02-20T16:03:36;76.12;;;38.70;;
42338;SDS011;27993;45.392;10.918;2023-02-20T16:06:06;72.68;;;38.20;;
42338;SDS011;27993;45.392;10.918;2023-02-20T16:08:37;76.85;;;40.42;;
42338;SDS011;27993;45.392;10.918;2023-02-20T16:11:08;77.27;;;38.87;;
42338;SDS011;27993;45.392;10.918;2023-02-20T16:13:40;81.32;;;41.47;;
42338;SDS011;27993;45.392;10.918;2023-02-20T16:16:33;84.20;;;42.03;;
42338;SDS011;27993;45.392;10.918;2023-02-20T16:19:16;83.78;;;40.53;;
42338;SDS011;27993;45.392;10.918;2023-02-20T16:21:48;89.45;;;41.80;;
42338;SDS011;27993;45.392;10.918;2023-02-20T16:24:20;90.50;;;44.40;;
42338;SDS011;27993;45.392;10.918;2023-02-20T16:26:51;88.37;;;42.60;;
42338;SDS011;27993;45.392;10.918;2023-02-20T16:29:25;91.37;;;38.90;;
42338;SDS011;27993;45.392;10.918;2023-02-20T16:34:32;83.17;;;44.03;;
42338;SDS011;27993;45.392;10.918;2023-02-20T16:37:02;75.70;;;41.10;;
42338;SDS011;27993;45.392;10.918;2023-02-20T16:39:33;86.33;;;41.00;;
42338;SDS011;27993;45.392;10.918;2023-02-20T16:42:26;77.43;;;39.10;;
42338;SDS011;27993;45.392;10.918;2023-02-20T16:44:55;82.10;;;39.28;;
42338;SDS011;27993;45.392;10.918;2023-02-20T16:47:28;76.40;;;38.92;;
42338;SDS011;27993;45.392;10.918;2023-02-20T16:50:02;82.45;;;40.30;;
42338;SDS011;27993;45.392;10.918;2023-02-20T16:52:36;67.95;;;35.58;;
42338;SDS011;27993;45.392;10.918;2023-02-20T16:55:22;70.00;;;37.53;;
42338;SDS011;27993;45.392;10.918;2023-02-20T16:57:54;77.12;;;38.60;;